Time;durP1;ratioP1;P1;durP2;ratioP2;P2;SDS_P1;SDS_P2;PMS_P1;PMS_P2;Temp;Humidity;BMP_temperature;BMP_pressure;BME280_temperature;BME280_humidity;BME280_pressure;Samples;Min_cycle;Max_cycle;Signal;HPM_P1;HPM_P2
2022/10/22 00:00:54;;;;;;;8.80;6.25;;;15.70;99.20;;;;;;4918164;29;20551;-69
2022/10/22 00:03:20;;;;;;;7.20;5.85;;;15.70;99.30;;;;;;4917254;29;20027;-70
2022/10/22 00:05:47;;;;;;;8.80;6.72;;;15.60;99.30;;;;;;4914599;29;20032;-69
2022/10/22 00:08:13;;;;;;;7.93;6.20;;;15.60;99.40;;;;;;4916745;29;20476;-69
2022/10/22 00:10:39;;;;;;;11.60;6.72;;;15.60;99.40;;;;;;4913760;29;20038;-69
2022/10/22 00:13:05;;;;;;;11.45;7.05;;;15.60;99.50;;;;;;4913238;29;20055;-70
2022/10/22 00:15:31;;;;;;;9.88;7.07;;;15.60;99.60;;;;;;4915388;29;20386;-66
2022/10/22 00:17:57;;;;;;;11.02;6.45;;;15.60;99.60;;;;;;4907428;29;20068;-69
2022/10/22 00:20:23;;;;;;;10.32;6.70;;;15.60;99.50;;;;;;4917264;29;20652;-70
2022/10/22 00:22:48;;;;;;;8.02;5.82;;;15.60;99.50;;;;;;4923020;29;20063;-69
2022/10/22 00:25:14;;;;;;;9.93;6.47;;;15.60;99.50;;;;;;4917630;29;20148;-70
2022/10/22 00:27:40;;;;;;;9.65;6.30;;;15.50;99.40;;;;;;4919662;29;20122;-69
2022/10/22 00:30:07;;;;;;;9.57;6.35;;;15.50;99.50;;;;;;4913808;29;20067;-69
2022/10/22 00:32:33;;;;;;;7.47;5.78;;;15.50;99.50;;;;;;4914069;29;20028;-66
2022/10/22 00:34:59;;;;;;;7.72;5.90;;;15.40;99.50;;;;;;4914807;29;20054;-66
2022/10/22 00:37:25;;;;;;;7.78;6.07;;;15.40;99.40;;;;;;4914797;29;20460;-66
2022/10/22 00:39:51;;;;;;;8.48;5.82;;;15.40;99.40;;;;;;4908629;29;20560;-65
2022/10/22 00:42:22;;;;;;;9.10;6.00;;;15.40;99.40;;;;;;4909109;29;20115;-66
2022/10/22 00:45:04;;;;;;;8.10;5.65;;;15.30;99.30;;;;;;4915260;29;20544;-66
2022/10/22 00:47:58;;;;;;;5.95;5.00;;;15.30;99.30;;;;;;4914299;29;20032;-66
2022/10/22 00:50:36;;;;;;;6.70;5.32;;;15.30;99.30;;;;;;4910949;29;20127;-69
2022/10/22 00:53:07;;;;;;;11.10;7.30;;;15.30;99.30;;;;;;4916794;29;20039;-70
2022/10/22 00:55:33;;;;;;;12.05;8.00;;;15.30;99.60;;;;;;4913568;29;20842;-70
2022/10/22 00:58:00;;;;;;;10.10;7.95;;;15.30;99.80;;;;;;4916428;29;20383;-69
2022/10/22 01:00:26;;;;;;;13.75;7.82;;;15.30;99.90;;;;;;4915669;29;20040;-66
2022/10/22 01:02:53;;;;;;;14.93;8.60;;;15.30;99.90;;;;;;4908779;29;20699;-66
2022/10/22 01:05:19;;;;;;;12.75;8.35;;;15.30;99.90;;;;;;4912039;29;20028;-69
2022/10/22 01:07:49;;;;;;;11.70;7.43;;;15.30;99.90;;;;;;4913387;29;20036;-69
2022/10/22 01:10:27;;;;;;;11.50;8.68;;;15.30;99.90;;;;;;4911081;29;20167;-66
2022/10/22 01:13:12;;;;;;;10.23;7.30;;;15.40;99.90;;;;;;4916326;29;20112;-66
2022/10/22 01:15:43;;;;;;;10.05;6.70;;;15.30;99.90;;;;;;4912721;29;20130;-66
2022/10/22 01:18:49;;;;;;;12.38;7.80;;;15.30;99.90;;;;;;4906954;29;20036;-66
2022/10/22 01:21:30;;;;;;;8.20;6.38;;;15.30;99.90;;;;;;4916032;29;20036;-69
2022/10/22 01:23:59;;;;;;;9.43;6.60;;;15.40;99.90;;;;;;4913583;29;20027;-69
2022/10/22 01:26:48;;;;;;;8.82;6.22;;;15.40;99.90;;;;;;4917110;29;20923;-69
2022/10/22 01:29:22;;;;;;;7.35;5.70;;;15.40;99.90;;;;;;4918175;29;20055;-69
2022/10/22 01:31:58;;;;;;;7.97;5.70;;;15.40;99.80;;;;;;4934833;29;20115;-66
2022/10/22 01:34:24;;;;;;;7.93;5.88;;;15.40;99.70;;;;;;4918881;29;20023;-66
2022/10/22 01:36:51;;;;;;;6.60;5.07;;;15.40;99.60;;;;;;4921287;29;20043;-66
2022/10/22 01:39:19;;;;;;;9.45;6.47;;;15.30;99.60;;;;;;4907797;29;20047;-66
2022/10/22 01:41:45;;;;;;;7.70;6.00;;;15.40;99.60;;;;;;4912647;29;20027;-66
2022/10/22 01:44:32;;;;;;;11.50;6.30;;;15.40;99.50;;;;;;4912014;29;20056;-66
2022/10/22 01:47:14;;;;;;;6.55;5.25;;;15.30;99.40;;;;;;4908931;29;20043;-66
2022/10/22 01:50:21;;;;;;;6.65;5.45;;;15.30;99.40;;;;;;4917377;29;20043;-66
2022/10/22 01:53:09;;;;;;;7.05;5.15;;;15.30;99.40;;;;;;4909363;29;20040;-66
2022/10/22 01:55:46;;;;;;;8.68;5.63;;;15.20;99.30;;;;;;4914318;29;20063;-68
2022/10/22 01:58:20;;;;;;;7.63;5.75;;;15.20;99.30;;;;;;4911947;29;20071;-66
2022/10/22 02:01:11;;;;;;;8.52;5.63;;;15.10;99.40;;;;;;4908592;29;20032;-66
2022/10/22 02:03:47;;;;;;;8.18;5.78;;;15.10;99.40;;;;;;4915212;29;20032;-69
2022/10/22 02:06:17;;;;;;;8.88;5.85;;;15.10;99.40;;;;;;4914026;29;20051;-68
2022/10/22 02:08:45;;;;;;;6.53;4.70;;;15.10;99.40;;;;;;4914813;29;20188;-69
2022/10/22 02:11:14;;;;;;;8.48;5.88;;;15.10;99.40;;;;;;4911165;29;20078;-68
2022/10/22 02:13:44;;;;;;;6.93;5.63;;;15.10;99.50;;;;;;4918786;29;20039;-68
2022/10/22 02:16:16;;;;;;;12.65;6.68;;;15.10;99.50;;;;;;4914867;29;20138;-68
2022/10/22 02:18:45;;;;;;;9.23;6.60;;;15.10;99.50;;;;;;4910992;29;20039;-69
2022/10/22 02:21:11;;;;;;;9.23;6.32;;;15.10;99.50;;;;;;4911622;29;20028;-69
2022/10/22 02:23:37;;;;;;;10.32;6.88;;;15.10;99.60;;;;;;4918366;29;20432;-70
2022/10/22 02:26:15;;;;;;;9.95;6.70;;;15.10;99.50;;;;;;4917969;29;20795;-68
2022/10/22 02:29:02;;;;;;;6.80;5.38;;;15.10;99.50;;;;;;4920363;29;20051;-70
2022/10/22 02:31:31;;;;;;;9.48;6.53;;;15.10;99.50;;;;;;4912524;29;20048;-69
2022/10/22 02:34:03;;;;;;;9.77;7.07;;;15.10;99.60;;;;;;4918472;29;20146;-69
2022/10/22 02:36:30;;;;;;;8.13;5.68;;;15.10;99.60;;;;;;4924726;29;164818;-68
2022/10/22 02:38:57;;;;;;;7.80;6.00;;;15.10;99.50;;;;;;4924567;29;20044;-70
2022/10/22 02:41:23;;;;;;;8.40;6.05;;;15.10;99.60;;;;;;4915216;29;20397;-68
2022/10/22 02:43:53;;;;;;;8.85;5.88;;;15.00;99.50;;;;;;4914599;29;20507;-68
2022/10/22 02:46:19;;;;;;;9.77;6.53;;;15.00;99.50;;;;;;4916574;29;20032;-65
2022/10/22 02:48:45;;;;;;;8.50;6.22;;;15.10;99.50;;;;;;4914397;29;20028;-66
2022/10/22 02:51:10;;;;;;;7.30;5.60;;;15.10;99.60;;;;;;4920963;29;20035;-65
2022/10/22 02:53:36;;;;;;;9.48;6.57;;;15.10;99.60;;;;;;4911694;29;20028;-69
2022/10/22 02:56:02;;;;;;;9.60;6.35;;;15.10;99.60;;;;;;4916984;29;20429;-70
2022/10/22 02:58:28;;;;;;;8.13;5.65;;;15.10;99.60;;;;;;4918339;29;20035;-66
2022/10/22 03:00:54;;;;;;;8.77;6.32;;;15.10;99.60;;;;;;4913286;29;20107;-68
2022/10/22 03:03:20;;;;;;;6.82;5.43;;;15.10;99.50;;;;;;4913673;29;20029;-65
2022/10/22 03:05:46;;;;;;;8.70;5.80;;;15.10;99.40;;;;;;4909307;29;20028;-66
2022/10/22 03:08:11;;;;;;;8.65;6.10;;;15.10;99.40;;;;;;4917923;29;20040;-65
2022/10/22 03:10:37;;;;;;;9.00;6.45;;;15.10;99.50;;;;;;4917749;29;20031;-65
2022/10/22 03:13:03;;;;;;;8.80;6.35;;;15.10;99.40;;;;;;4918546;29;20128;-68
2022/10/22 03:15:29;;;;;;;9.02;6.13;;;15.10;99.40;;;;;;4913760;29;20087;-69
2022/10/22 03:17:54;;;;;;;7.15;5.68;;;15.00;99.40;;;;;;4917168;29;20162;-68
2022/10/22 03:20:20;;;;;;;7.47;5.53;;;15.00;99.40;;;;;;4916115;29;20603;-66
2022/10/22 03:22:46;;;;;;;10.95;6.90;;;15.00;99.40;;;;;;4913762;29;20123;-65
2022/10/22 03:25:18;;;;;;;7.88;5.93;;;15.00;99.50;;;;;;4915138;29;20134;-66
2022/10/22 03:27:45;;;;;;;9.88;6.30;;;15.00;99.50;;;;;;4910941;29;20032;-66
2022/10/22 03:30:12;;;;;;;8.82;6.65;;;15.00;99.50;;;;;;4913609;29;20043;-65
2022/10/22 03:32:37;;;;;;;7.05;5.80;;;15.00;99.50;;;;;;4933180;29;20062;-66
2022/10/22 03:35:04;;;;;;;6.78;5.63;;;14.90;99.50;;;;;;4911078;29;20046;-66
2022/10/22 03:37:31;;;;;;;6.55;5.05;;;14.90;99.40;;;;;;4915198;29;20040;-65
2022/10/22 03:39:57;;;;;;;8.45;6.28;;;14.90;99.40;;;;;;4912288;29;20736;-66
2022/10/22 03:42:23;;;;;;;8.88;6.40;;;14.90;99.40;;;;;;4911734;29;20110;-70
2022/10/22 03:44:49;;;;;;;8.55;6.05;;;14.90;99.40;;;;;;4913850;29;20079;-68
2022/10/22 03:47:15;;;;;;;7.53;5.72;;;14.90;99.50;;;;;;4918935;29;20027;-70
2022/10/22 03:49:41;;;;;;;7.50;5.60;;;14.90;99.50;;;;;;4914681;29;20055;-69
2022/10/22 03:52:08;;;;;;;7.75;5.35;;;14.90;99.50;;;;;;4917273;29;20036;-68
2022/10/22 03:54:34;;;;;;;8.20;6.07;;;14.90;99.50;;;;;;4912934;29;20044;-69
2022/10/22 03:57:00;;;;;;;8.43;6.05;;;14.90;99.50;;;;;;4916458;29;20062;-70
2022/10/22 03:59:26;;;;;;;10.68;6.20;;;14.90;99.50;;;;;;4914968;29;20860;-70
2022/10/22 04:01:52;;;;;;;8.48;6.05;;;14.90;99.80;;;;;;4912397;29;20058;-70
2022/10/22 04:04:17;;;;;;;7.97;5.97;;;14.90;99.60;;;;;;4910911;29;20031;-68
2022/10/22 04:06:43;;;;;;;10.70;6.82;;;14.90;99.60;;;;;;4922697;29;20090;-69
2022/10/22 04:09:09;;;;;;;10.73;7.53;;;14.90;99.60;;;;;;4917798;29;20760;-69
2022/10/22 04:11:34;;;;;;;9.57;6.80;;;14.90;99.70;;;;;;4916838;29;20093;-69
2022/10/22 04:14:00;;;;;;;12.60;7.38;;;14.90;99.70;;;;;;4915571;29;20028;-69
2022/10/22 04:16:31;;;;;;;10.13;7.47;;;14.90;99.70;;;;;;4917747;29;20401;-69
2022/10/22 04:18:57;;;;;;;14.48;9.10;;;14.90;99.80;;;;;;4915422;29;20028;-68
2022/10/22 04:21:23;;;;;;;13.57;8.18;;;14.90;99.80;;;;;;4917462;29;20044;-69
2022/10/22 04:23:51;;;;;;;17.60;9.20;;;15.00;99.80;;;;;;4915693;29;20555;-69
2022/10/22 04:26:18;;;;;;;13.27;9.07;;;15.00;99.90;;;;;;4922832;29;20638;-69
2022/10/22 04:28:45;;;;;;;13.07;7.78;;;15.00;99.80;;;;;;4912483;29;20775;-66
2022/10/22 04:31:13;;;;;;;9.82;7.03;;;15.00;99.80;;;;;;4915376;29;20509;-68
2022/10/22 04:33:40;;;;;;;8.93;6.50;;;14.90;99.90;;;;;;4919485;29;20040;-69
2022/10/22 04:36:10;;;;;;;8.48;6.80;;;14.90;99.80;;;;;;4918986;29;20162;-69
2022/10/22 04:38:37;;;;;;;9.02;6.32;;;15.00;99.80;;;;;;4913671;29;20794;-69
2022/10/22 04:41:13;;;;;;;10.40;7.00;;;15.00;99.80;;;;;;4915185;29;20039;-69
2022/10/22 04:43:39;;;;;;;9.20;5.90;;;15.00;99.80;;;;;;4917114;29;20131;-68
2022/10/22 04:46:07;;;;;;;8.07;6.63;;;15.00;99.70;;;;;;4925298;29;20117;-70
2022/10/22 04:48:35;;;;;;;9.20;6.75;;;14.90;99.60;;;;;;4923882;29;20034;-70
2022/10/22 04:51:01;;;;;;;10.40;7.45;;;14.90;99.50;;;;;;4922208;29;20050;-70
2022/10/22 04:53:26;;;;;;;10.00;7.13;;;14.90;99.40;;;;;;4916768;29;20032;-70
2022/10/22 04:55:53;;;;;;;7.47;6.05;;;14.90;99.30;;;;;;4916231;29;20040;-69
2022/10/22 04:58:19;;;;;;;7.95;6.05;;;14.90;99.30;;;;;;4915679;29;20488;-69
2022/10/22 05:00:45;;;;;;;9.00;6.78;;;14.80;99.30;;;;;;4914661;29;20087;-66
2022/10/22 05:03:10;;;;;;;9.63;7.07;;;14.80;99.40;;;;;;4923236;29;20035;-65
2022/10/22 05:05:36;;;;;;;8.70;5.97;;;14.80;99.40;;;;;;4920627;29;20473;-66
2022/10/22 05:08:02;;;;;;;8.38;5.95;;;14.80;99.40;;;;;;4938468;28;20114;-65
2022/10/22 05:10:27;;;;;;;8.02;6.05;;;14.80;99.40;;;;;;4911435;29;20118;-69
2022/10/22 05:12:53;;;;;;;8.30;6.22;;;14.70;99.40;;;;;;4920697;29;20043;-70
2022/10/22 05:15:19;;;;;;;8.25;5.78;;;14.70;99.40;;;;;;4922303;29;20863;-69
2022/10/22 05:17:45;;;;;;;7.43;5.25;;;14.70;99.30;;;;;;4912658;29;20408;-74
2022/10/22 05:20:10;;;;;;;9.45;6.50;;;14.70;99.40;;;;;;4918574;29;20043;-69
2022/10/22 05:22:36;;;;;;;11.43;7.80;;;14.70;99.40;;;;;;4922943;29;20074;-69
2022/10/22 05:25:02;;;;;;;11.70;6.60;;;14.70;99.40;;;;;;4927201;29;20469;-69
2022/10/22 05:27:28;;;;;;;9.05;6.32;;;14.60;99.30;;;;;;4920939;29;20043;-69
2022/10/22 05:29:53;;;;;;;7.80;5.88;;;14.60;99.30;;;;;;4918622;29;20035;-69
2022/10/22 05:32:19;;;;;;;8.48;6.15;;;14.70;99.40;;;;;;4923013;29;20111;-70
2022/10/22 05:34:45;;;;;;;8.10;6.25;;;14.60;99.40;;;;;;4921923;29;20050;-69
2022/10/22 05:37:10;;;;;;;9.68;6.25;;;14.60;99.50;;;;;;4917113;29;20139;-70
2022/10/22 05:39:39;;;;;;;7.97;6.50;;;14.60;99.40;;;;;;4926745;29;20057;-65
2022/10/22 05:42:05;;;;;;;9.50;6.20;;;14.60;99.40;;;;;;4923869;29;20378;-65
2022/10/22 05:44:30;;;;;;;8.43;6.55;;;14.60;99.50;;;;;;4917190;29;20083;-66
2022/10/22 05:46:56;;;;;;;10.15;6.93;;;14.60;99.70;;;;;;4919261;29;20040;-66
2022/10/22 05:49:22;;;;;;;8.75;6.47;;;14.60;99.50;;;;;;4917947;29;20020;-67
2022/10/22 05:51:47;;;;;;;8.20;6.47;;;14.50;99.40;;;;;;4914349;29;20917;-67
2022/10/22 05:54:18;;;;;;;8.65;6.53;;;14.50;99.40;;;;;;4920185;29;20488;-65
2022/10/22 05:56:44;;;;;;;8.13;6.00;;;14.50;99.50;;;;;;4918584;28;20032;-65
2022/10/22 05:59:10;;;;;;;8.27;5.90;;;14.50;99.40;;;;;;4937811;28;20063;-67
2022/10/22 06:01:39;;;;;;;7.68;6.13;;;14.50;99.50;;;;;;4925913;29;20035;-66
2022/10/22 06:04:09;;;;;;;8.90;6.40;;;14.50;99.50;;;;;;4922342;29;20039;-66
2022/10/22 06:06:39;;;;;;;8.63;6.43;;;14.50;99.60;;;;;;4922266;29;20035;-66
2022/10/22 06:09:27;;;;;;;8.57;6.00;;;14.50;99.70;;;;;;4919490;29;20075;-66
2022/10/22 06:11:54;;;;;;;8.95;6.07;;;14.50;99.70;;;;;;4920887;29;20040;-66
2022/10/22 06:14:20;;;;;;;8.73;5.80;;;14.50;99.70;;;;;;4914353;29;20690;-69
2022/10/22 06:16:47;;;;;;;8.98;6.20;;;14.60;99.70;;;;;;4922347;29;20039;-67
2022/10/22 06:19:15;;;;;;;9.50;7.10;;;14.60;99.70;;;;;;4920298;29;20127;-68
2022/10/22 06:21:40;;;;;;;8.10;5.90;;;14.60;99.70;;;;;;4920343;29;20042;-74
2022/10/22 06:24:07;;;;;;;8.98;6.50;;;14.60;99.70;;;;;;4930307;29;20040;-68
2022/10/22 06:26:32;;;;;;;10.43;6.90;;;14.70;99.80;;;;;;4924751;28;20023;-68
2022/10/22 06:28:59;;;;;;;8.93;7.05;;;14.70;99.90;;;;;;4925165;29;20036;-68
2022/10/22 06:31:25;;;;;;;10.43;6.53;;;14.70;99.80;;;;;;4923385;29;20042;-68
2022/10/22 06:33:51;;;;;;;8.10;5.90;;;14.80;99.80;;;;;;4922317;28;20028;-68
2022/10/22 06:36:22;;;;;;;9.95;7.35;;;14.80;99.90;;;;;;4924945;29;20837;-68
2022/10/22 06:38:51;;;;;;;15.63;11.40;;;14.80;99.90;;;;;;4919989;29;20107;-68
2022/10/22 06:41:17;;;;;;;13.57;10.98;;;14.80;99.90;;;;;;4921986;29;20044;-68
2022/10/22 06:43:45;;;;;;;17.58;13.73;;;14.90;99.90;;;;;;4924848;28;20039;-67
2022/10/22 06:46:12;;;;;;;17.60;15.60;;;14.90;99.90;;;;;;4924713;29;20090;-68
2022/10/22 06:48:39;;;;;;;18.73;16.17;;;15.00;99.90;;;;;;4921244;29;20024;-68
2022/10/22 06:51:07;;;;;;;19.80;17.27;;;15.00;99.90;;;;;;4911309;29;20328;-68
2022/10/22 06:53:34;;;;;;;20.27;16.52;;;15.10;99.90;;;;;;4920935;29;20106;-68
2022/10/22 06:56:12;;;;;;;16.92;14.40;;;15.10;99.90;;;;;;4921851;29;20627;-68
2022/10/22 06:58:39;;;;;;;15.52;13.30;;;15.10;99.90;;;;;;4924861;29;20039;-68
2022/10/22 07:01:10;;;;;;;13.88;11.10;;;15.20;99.80;;;;;;4927128;29;20048;-68
2022/10/22 07:03:36;;;;;;;15.13;11.52;;;15.20;99.80;;;;;;4940217;28;20035;-68
2022/10/22 07:06:05;;;;;;;24.92;17.50;;;15.20;99.80;;;;;;4920653;29;20039;-67
2022/10/22 07:08:31;;;;;;;26.02;17.30;;;15.20;99.90;;;;;;4914555;29;20028;-68
2022/10/22 07:11:23;;;;;;;27.02;18.42;;;15.20;99.80;;;;;;4923266;28;20032;-68
2022/10/22 07:13:50;;;;;;;34.33;23.13;;;15.30;99.90;;;;;;4925081;29;20503;-68
2022/10/22 07:16:17;;;;;;;52.22;36.25;;;15.30;99.80;;;;;;4927935;29;20055;-68
2022/10/22 07:18:43;;;;;;;115.00;77.43;;;15.40;99.70;;;;;;4923727;28;20761;-68
2022/10/22 07:21:11;;;;;;;76.20;48.70;;;15.40;99.60;;;;;;4923598;29;20042;-68
2022/10/22 07:23:37;;;;;;;39.35;26.20;;;15.40;99.60;;;;;;4922224;29;20031;-68
2022/10/22 07:26:06;;;;;;;26.80;19.17;;;15.40;99.60;;;;;;4921399;28;20083;-68
2022/10/22 07:28:33;;;;;;;18.67;14.70;;;15.50;99.60;;;;;;4917866;29;20032;-68
2022/10/22 07:30:59;;;;;;;18.35;13.13;;;15.50;99.70;;;;;;4925920;29;20427;-69
2022/10/22 07:33:26;;;;;;;15.82;12.02;;;15.50;99.70;;;;;;4920681;29;20040;-68
2022/10/22 07:36:00;;;;;;;15.50;11.88;;;15.60;99.60;;;;;;4925066;29;20059;-68
2022/10/22 07:38:26;;;;;;;18.73;12.18;;;15.60;99.70;;;;;;4907071;29;20035;-69
2022/10/22 07:40:52;;;;;;;29.45;21.42;;;15.60;99.60;;;;;;4923184;29;20047;-68
2022/10/22 07:43:18;;;;;;;27.73;19.88;;;15.70;99.60;;;;;;4917610;29;20040;-68
2022/10/22 07:45:44;;;;;;;27.65;20.13;;;15.80;99.30;;;;;;4924010;29;20031;-68
2022/10/22 07:48:10;;;;;;;31.15;21.00;;;15.80;99.30;;;;;;4920059;29;20099;-74
2022/10/22 07:50:36;;;;;;;21.77;15.90;;;15.70;99.40;;;;;;4922194;28;20031;-68
2022/10/22 07:53:02;;;;;;;16.75;11.88;;;15.80;99.50;;;;;;4916975;29;20043;-68
2022/10/22 07:55:27;;;;;;;10.98;8.20;;;15.80;99.40;;;;;;4918174;29;20042;-68
2022/10/22 07:57:53;;;;;;;13.68;9.23;;;15.90;99.40;;;;;;4914093;29;20126;-68
2022/10/22 08:00:19;;;;;;;15.90;10.45;;;15.90;99.40;;;;;;4923608;29;20095;-64
2022/10/22 08:02:45;;;;;;;13.85;8.65;;;16.00;99.20;;;;;;4916121;29;20036;-67
2022/10/22 08:05:12;;;;;;;11.90;8.15;;;16.00;99.20;;;;;;4909756;29;20062;-68
2022/10/22 08:07:39;;;;;;;13.35;9.50;;;16.00;99.20;;;;;;4936985;28;20028;-68
2022/10/22 08:10:05;;;;;;;11.63;8.77;;;15.90;99.20;;;;;;4925885;29;20046;-68
2022/10/22 08:12:31;;;;;;;11.02;8.40;;;16.00;99.20;;;;;;4921895;29;20031;-68
2022/10/22 08:14:56;;;;;;;11.05;7.20;;;16.00;99.30;;;;;;4918128;29;20047;-69
2022/10/22 08:17:22;;;;;;;11.32;8.75;;;16.00;99.30;;;;;;4917739;29;20523;-69
2022/10/22 08:19:48;;;;;;;11.55;8.80;;;16.00;99.20;;;;;;4916903;29;20046;-68
2022/10/22 08:22:14;;;;;;;11.38;7.93;;;16.00;99.30;;;;;;4915543;29;20086;-67
2022/10/22 08:24:40;;;;;;;16.70;12.20;;;16.10;99.30;;;;;;4913341;29;20131;-68
2022/10/22 08:27:06;;;;;;;14.90;12.00;;;16.10;99.40;;;;;;4922470;29;20168;-67
2022/10/22 08:29:32;;;;;;;16.42;13.00;;;16.20;99.40;;;;;;4917715;29;20039;-68
2022/10/22 08:31:58;;;;;;;14.45;12.30;;;16.20;99.40;;;;;;4924175;29;20589;-67
2022/10/22 08:34:24;;;;;;;14.40;10.90;;;16.30;99.40;;;;;;4927122;29;20115;-67
2022/10/22 08:36:49;;;;;;;14.30;9.93;;;16.30;99.40;;;;;;4922498;29;20040;-67
2022/10/22 08:39:15;;;;;;;43.72;25.13;;;16.40;99.40;;;;;;4919640;29;20039;-68
2022/10/22 08:42:08;;;;;;;77.47;39.85;;;16.40;99.30;;;;;;4925906;29;20036;-67
2022/10/22 08:45:07;;;;;;;45.35;26.73;;;16.50;99.10;;;;;;4920879;29;20031;-67
2022/10/22 08:48:10;;;;;;;66.13;37.20;;;16.50;99.20;;;;;;4921099;29;20062;-68
2022/10/22 08:50:40;;;;;;;53.10;28.83;;;16.50;99.20;;;;;;4921612;29;20039;-66
2022/10/22 08:53:12;;;;;;;57.00;31.50;;;16.50;99.10;;;;;;4926532;29;20111;-67
2022/10/22 08:55:38;;;;;;;46.50;27.42;;;16.60;99.00;;;;;;4916148;29;20155;-67
2022/10/22 08:58:28;;;;;;;36.38;24.40;;;16.60;99.00;;;;;;4918171;29;20036;-67
2022/10/22 09:01:01;;;;;;;25.33;18.40;;;16.60;99.20;;;;;;4910508;29;20575;-66
2022/10/22 09:03:40;;;;;;;22.75;15.93;;;16.70;99.30;;;;;;4919135;29;20481;-66
2022/10/22 09:06:22;;;;;;;22.63;13.93;;;16.70;99.30;;;;;;4925132;29;20032;-66
2022/10/22 09:08:49;;;;;;;16.60;12.63;;;16.80;99.20;;;;;;4928472;29;20507;-66
2022/10/22 09:11:19;;;;;;;17.48;10.63;;;16.90;99.30;;;;;;4933923;28;20040;-69
2022/10/22 09:13:45;;;;;;;13.30;9.50;;;17.10;99.20;;;;;;4929678;29;20039;-66
2022/10/22 09:16:43;;;;;;;9.75;7.63;;;17.20;99.20;;;;;;4923850;28;20040;-67
2022/10/22 09:19:27;;;;;;;11.20;8.75;;;17.30;99.20;;;;;;4883211;29;20894;-68
2022/10/22 09:22:23;;;;;;;13.98;10.10;;;17.50;99.10;;;;;;4924162;28;20044;-67
2022/10/22 09:24:56;;;;;;;;;;;17.70;98.60;;;;;;4923863;29;20146;-67
2022/10/22 09:27:27;;;;;;;11.80;9.63;;;17.80;97.90;;;;;;4919505;29;19919;-68
2022/10/22 09:29:53;;;;;;;12.20;8.15;;;17.90;97.40;;;;;;4922043;29;20047;-67
2022/10/22 09:32:19;;;;;;;9.45;6.63;;;17.90;96.60;;;;;;4918001;29;20032;-71
2022/10/22 09:34:49;;;;;;;12.23;7.28;;;17.90;96.70;;;;;;4928407;28;20031;-68
2022/10/22 09:37:23;;;;;;;12.45;8.07;;;17.90;96.90;;;;;;4922893;28;20047;-68
2022/10/22 09:39:53;;;;;;;11.15;8.20;;;17.90;97.00;;;;;;4923020;29;20035;-68
2022/10/22 09:42:21;;;;;;;13.07;9.48;;;17.90;96.70;;;;;;4916830;29;20035;-67
2022/10/22 09:44:56;;;;;;;10.88;8.52;;;17.80;96.80;;;;;;4921611;29;20035;-68
2022/10/22 09:47:33;;;;;;;10.02;7.28;;;17.90;96.90;;;;;;4919364;29;20032;-67
2022/10/22 09:50:19;;;;;;;8.18;6.07;;;17.90;97.00;;;;;;4922029;29;20118;-67
2022/10/22 09:52:54;;;;;;;9.07;6.18;;;17.90;97.10;;;;;;4915321;29;20055;-68
2022/10/22 09:55:23;;;;;;;9.35;6.07;;;18.00;97.20;;;;;;4925656;29;20035;-67
2022/10/22 09:57:53;;;;;;;7.93;6.55;;;18.00;97.10;;;;;;4920786;28;20044;-68
2022/10/22 10:00:23;;;;;;;7.93;5.97;;;18.10;97.00;;;;;;4914409;29;20058;-68
2022/10/22 10:02:55;;;;;;;7.57;5.07;;;18.10;97.00;;;;;;4924910;29;20777;-68
2022/10/22 10:05:27;;;;;;;10.45;7.85;;;18.10;97.00;;;;;;4922159;29;20031;-67
2022/10/22 10:07:53;;;;;;;10.48;7.18;;;18.20;96.80;;;;;;4937839;28;20038;-68
2022/10/22 10:10:37;;;;;;;10.43;6.40;;;18.20;96.70;;;;;;4922389;29;20031;-68
2022/10/22 10:13:27;;;;;;;7.10;5.43;;;18.20;96.80;;;;;;4918503;29;20074;-68
2022/10/22 10:16:08;;;;;;;12.05;7.10;;;18.20;96.60;;;;;;4917349;29;20043;-68
2022/10/22 10:19:05;;;;;;;10.48;6.35;;;18.20;96.10;;;;;;4928524;29;20042;-68
2022/10/22 10:21:56;;;;;;;10.10;6.55;;;18.10;96.20;;;;;;4924396;29;20120;-68
2022/10/22 10:24:27;;;;;;;7.65;5.32;;;18.10;96.10;;;;;;4922961;29;20066;-68
2022/10/22 10:27:38;;;;;;;8.32;5.65;;;18.10;96.30;;;;;;4924556;29;20028;-68
2022/10/22 10:30:31;;;;;;;9.15;6.50;;;18.10;96.60;;;;;;4866561;29;20049;-68
2022/10/22 10:33:22;;;;;;;10.80;6.90;;;18.90;95.50;;;;;;4916348;29;20048;-68
2022/10/22 10:36:07;;;;;;;9.27;6.25;;;19.90;92.80;;;;;;4914243;29;20492;-68
2022/10/22 10:38:40;;;;;;;7.75;5.60;;;21.10;91.10;;;;;;4922681;29;20695;-68
2022/10/22 10:41:32;;;;;;;10.60;6.50;;;22.40;87.30;;;;;;4925651;29;20107;-64
2022/10/22 10:44:13;;;;;;;7.82;5.28;;;23.40;81.00;;;;;;4919178;29;20250;-63
2022/10/22 10:47:13;;;;;;;7.07;4.90;;;24.80;74.60;;;;;;4923679;29;20036;-63
2022/10/22 10:49:43;;;;;;;7.22;4.50;;;26.60;68.40;;;;;;4917578;29;20080;-64
2022/10/22 10:52:16;;;;;;;5.20;4.25;;;28.00;63.00;;;;;;4910857;29;20040;-64
2022/10/22 10:55:13;;;;;;;9.82;4.78;;;28.90;58.70;;;;;;4918420;29;20042;-64
2022/10/22 10:57:44;;;;;;;8.52;4.82;;;29.00;56.10;;;;;;4917890;29;20119;-64
2022/10/22 11:00:21;;;;;;;10.85;5.50;;;27.80;58.80;;;;;;4913368;29;20047;-64
2022/10/22 11:03:20;;;;;;;9.15;5.03;;;25.80;64.00;;;;;;4920498;29;20074;-63
2022/10/22 11:06:00;;;;;;;8.25;5.00;;;24.20;69.90;;;;;;4930451;29;20039;-63
2022/10/22 11:08:37;;;;;;;8.13;5.35;;;23.00;76.30;;;;;;4918262;29;20036;-63
2022/10/22 11:11:17;;;;;;;8.18;5.95;;;22.10;79.80;;;;;;4922702;29;20043;-63
2022/10/22 11:14:13;;;;;;;6.43;5.10;;;21.40;83.60;;;;;;4915003;29;20027;-63
2022/10/22 11:16:48;;;;;;;8.95;4.85;;;21.10;86.00;;;;;;4916892;29;20059;-63
2022/10/22 11:19:46;;;;;;;11.73;4.83;;;20.90;87.20;;;;;;4918271;29;20044;-63
2022/10/22 11:22:27;;;;;;;6.85;4.35;;;20.80;87.30;;;;;;4926558;29;20099;-63
2022/10/22 11:25:06;;;;;;;6.90;4.30;;;20.70;89.60;;;;;;4916541;29;20031;-64
2022/10/22 11:27:49;;;;;;;5.80;4.65;;;20.70;89.60;;;;;;4914690;29;20035;-63
2022/10/22 11:30:21;;;;;;;8.90;3.92;;;20.60;89.30;;;;;;4922216;28;20869;-64
2022/10/22 11:33:00;;;;;;;7.93;4.05;;;20.50;90.10;;;;;;4927779;29;20488;-73
2022/10/22 11:35:39;;;;;;;6.95;4.15;;;20.50;89.40;;;;;;4914145;29;20039;-73
2022/10/22 11:38:06;;;;;;;5.13;3.33;;;20.60;88.90;;;;;;4917876;29;20396;-73
2022/10/22 11:40:38;;;;;;;9.20;4.80;;;20.60;88.10;;;;;;4925376;29;20036;-73
2022/10/22 11:43:09;;;;;;;6.60;4.15;;;20.60;89.60;;;;;;4941038;28;20040;-73
2022/10/22 11:45:35;;;;;;;8.52;4.35;;;20.50;88.50;;;;;;4916260;29;20032;-73
2022/10/22 11:48:10;;;;;;;8.20;3.88;;;20.60;89.40;;;;;;4912834;29;20039;-73
2022/10/22 11:50:45;;;;;;;8.95;3.83;;;20.70;88.90;;;;;;4915411;29;20032;-73
2022/10/22 11:53:11;;;;;;;;;;;20.70;88.70;;;;;;4919016;29;20035;-73
2022/10/22 11:55:49;;;;;;;11.83;4.20;;;20.60;88.60;;;;;;4907235;29;19919;-73
2022/10/22 11:58:29;;;;;;;6.18;3.38;;;20.50;88.60;;;;;;4934534;28;20042;-78
2022/10/22 12:01:01;;;;;;;7.93;3.42;;;20.50;88.90;;;;;;4914482;28;20064;-71
2022/10/22 12:03:33;;;;;;;8.25;3.97;;;20.50;90.00;;;;;;4915290;29;20027;-70
2022/10/22 12:06:10;;;;;;;5.93;3.83;;;20.60;89.60;;;;;;4912349;29;20191;-70
2022/10/22 12:08:51;;;;;;;8.50;4.13;;;20.60;88.80;;;;;;4920417;28;20115;-69
2022/10/22 12:11:38;;;;;;;5.05;3.22;;;20.60;87.90;;;;;;4915538;29;20043;-73
2022/10/22 12:14:28;;;;;;;5.88;3.45;;;20.60;88.80;;;;;;4913506;29;20107;-71
2022/10/22 12:17:06;;;;;;;6.38;3.10;;;20.60;88.30;;;;;;4933995;29;20484;-70
2022/10/22 12:19:50;;;;;;;8.52;2.50;;;20.70;88.50;;;;;;4914664;29;20063;-71
2022/10/22 12:22:22;;;;;;;6.30;2.88;;;20.70;87.70;;;;;;4924057;29;20111;-70
2022/10/22 12:24:53;;;;;;;4.43;2.28;;;20.70;87.40;;;;;;4918394;29;20127;-71
2022/10/22 12:27:28;;;;;;;4.95;2.60;;;20.70;87.30;;;;;;4909795;29;20055;-72
2022/10/22 12:29:56;;;;;;;8.60;2.88;;;20.80;87.10;;;;;;4916167;29;20036;-70
2022/10/22 12:32:27;;;;;;;4.00;2.30;;;20.80;85.90;;;;;;4915066;29;20134;-70
2022/10/22 12:34:54;;;;;;;7.68;1.90;;;20.80;86.20;;;;;;4915747;29;20031;-73
2022/10/22 12:37:20;;;;;;;6.75;2.10;;;20.80;86.10;;;;;;4919795;29;20043;-70
2022/10/22 12:39:46;;;;;;;4.30;1.73;;;20.70;86.80;;;;;;4913240;29;20028;-73
2022/10/22 12:42:15;;;;;;;5.53;2.42;;;20.70;86.30;;;;;;4918662;28;20048;-70
2022/10/22 12:44:42;;;;;;;4.25;1.83;;;20.80;86.40;;;;;;4916621;29;20087;-73
2022/10/22 12:47:15;;;;;;;4.28;2.05;;;20.80;85.50;;;;;;4913169;29;20072;-71
2022/10/22 12:49:44;;;;;;;4.95;1.88;;;20.80;85.70;;;;;;4911648;29;20032;-70
2022/10/22 12:52:17;;;;;;;12.45;2.30;;;20.80;86.00;;;;;;4915155;29;20489;-73
2022/10/22 12:54:46;;;;;;;8.40;2.28;;;20.80;85.60;;;;;;4919007;29;20071;-73
2022/10/22 12:57:15;;;;;;;4.28;1.50;;;20.80;85.40;;;;;;4912983;29;20032;-72
2022/10/22 12:59:45;;;;;;;8.63;1.70;;;20.80;84.80;;;;;;4916060;29;20039;-72
2022/10/22 13:02:24;;;;;;;6.60;1.73;;;20.80;84.80;;;;;;4911970;29;20040;-72